Informes METAR más Próximos

 

KSJC - San Jose, California, USA
Distancia desde EA1HNP Meteo: NE 14km
Actualización: 29/01/2022 02:22
Parcialmente nuboso
Parcialmente nuboso
 Viento del NNO
Viento: NNO 11 km/h
Temperatura: 14°C
Rocío: 6°C
Humedad: 59%
Barómetro: 1023.4 hPa
Nubes: Parcialmente nuboso
Visibilidad: 16 km
Detalle de nubes: Poco nuboso 0 m
Poco nuboso 1981 m
Parcialmente nuboso 3658 m
2022/01/29 01:22 KSJC 290122Z 34006KT 10SM FEW000 FEW065 SCT120 14/06 A3022 RMK AO2 FU FEW000 T01440056
KNUQ - Moffett Nas/Mtn, California, USA
Distancia desde EA1HNP Meteo: N 14km
Actualización: 29/01/2022 02:55
Despejado
Despejado
 Viento del calm
Viento: Calma
Temperatura: 14°C
Rocío: 7°C
Humedad: 63%
Barómetro: 1023.7 hPa
Nubes: Despejado
Visibilidad: 16 km
2022/01/29 01:55 KNUQ 290155Z AUTO 00000KT 10SM CLR 14/07 A3023 RMK AO2
 
KPAO - Palo Alto, California, USA
Distancia desde EA1HNP Meteo: NNO 23km
Actualización: 29/01/2022 02:47
Despejado
Despejado
 Viento del NO
Viento: NO 6 km/h
Temperatura: 13°C
Rocío: 7°C
Humedad: 67%
Barómetro: 1023.7 hPa
Nubes: Despejado
Visibilidad: 16 km
2022/01/29 01:47 KPAO 290147Z 32003KT 10SM SKC 13/07 A3023
KRHV - San Jose/Reid, California, USA
Distancia desde EA1HNP Meteo: ENE 19km
Actualización: 29/01/2022 02:47
Parcialmente nuboso
Parcialmente nuboso
 Viento del calm
Viento: Calma
Temperatura: 15°C
Rocío: 4°C
Humedad: 48%
Barómetro: 1023.7 hPa
Nubes: Parcialmente nuboso
Visibilidad: 16 km
Detalle de nubes: Parcialmente nuboso 3048 m
2022/01/29 01:47 KRHV 290147Z 00000KT 10SM SCT100 15/04 A3023
 
KOAK - Oakland, California, USA
Distancia desde EA1HNP Meteo: NNO 50km
Actualización: 29/01/2022 02:53
Muy nuboso
Muy nuboso
 Viento del ESE
Viento: ESE 7 km/h
Temperatura: 14°C
Rocío: 6°C
Humedad: 59%
Barómetro: 1023.7 hPa
Nubes: Muy nuboso
Visibilidad: 16 km
Detalle de nubes: Poco nuboso 4267 m
Parcialmente nuboso 5486 m
Muy nuboso 6706 m
2022/01/29 01:53 KOAK 290153Z 11004KT 10SM FEW140 SCT180 BKN220 14/06 A3023 RMK AO2 SLP237 T01390061
KSQL - San Carlos Airpo, California, USA
Distancia desde EA1HNP Meteo: NO 34km
Actualización: 29/01/2022 02:47
Parcialmente nuboso
Parcialmente nuboso
 Viento del calm
Viento: Calma
Temperatura: 15°C
Rocío: 4°C
Humedad: 48%
Barómetro: 1024 hPa
Nubes: Parcialmente nuboso
Visibilidad: 11 km
Detalle de nubes: Parcialmente nuboso 5486 m
2022/01/29 01:47 KSQL 290147Z 00000KT 7SM SCT180 15/04 A3024
 
KSFO - San Francisco, California, USA
Distancia desde EA1HNP Meteo: NO 49km
Actualización: 29/01/2022 02:56
Parcialmente nuboso
Parcialmente nuboso
 Viento del S
Viento: S 6 km/h
Temperatura: 15°C
Rocío: 7°C
Humedad: 59%
Barómetro: 1023.4 hPa
Nubes: Parcialmente nuboso
Visibilidad: 16 km
Detalle de nubes: Poco nuboso 4572 m
Parcialmente nuboso 5486 m
2022/01/29 01:56 KSFO 290156Z 17003KT 10SM FEW150 SCT180 15/07 A3022 RMK AO2 SLP234 T01500067
KE16 - San Martin, California, USA
Distancia desde EA1HNP Meteo: ESE 43km
Actualización: 29/01/2022 02:30
Despejado
Despejado
 Viento del NO
Viento: NO 9 km/h
Temperatura: 16°C
Rocío: 2°C
Humedad: 39%
Barómetro: 1023.7 hPa
Nubes: Despejado
Visibilidad: 16 km
2022/01/29 01:30 KE16 290130Z AUTO 32005KT 10SM CLR 16/02 A3023 RMK AO2 PWINO PNO
 
KWVI - Watsonville, California, USA
Distancia desde EA1HNP Meteo: SSE 44km
Actualización: 29/01/2022 02:53
Despejado
Despejado
 Viento del NNO
Viento: NNO 7 km/h
Temperatura: 16°C
Rocío: 0°C
Humedad: 34%
Barómetro: 1023.4 hPa
Nubes: Despejado
Visibilidad: 16 km
2022/01/29 01:53 KWVI 290153Z AUTO 34004KT 10SM CLR 16/00 A3022 RMK AO2 SLP233 T01560000
KHAF - Half Moon Bay, California, USA
Distancia desde EA1HNP Meteo: ONO 50km
Actualización: 29/01/2022 02:55
Despejado
Despejado
 Viento del calm
Viento: Calma
Temperatura: 12°C
Rocío: 5°C
Humedad: 63%
Barómetro: 1023.4 hPa
Nubes: Despejado
Visibilidad: 11 km
2022/01/29 01:55 KHAF 290155Z AUTO 00000KT 7SM CLR 12/05 A3022 RMK AO2
 
KHWD - Hayward, California, USA
Distancia desde EA1HNP Meteo: N 44km
Actualización: 29/01/2022 02:54
Despejado
Despejado
 Viento del ENE
Viento: ENE 7 km/h
Temperatura: 16°C
Rocío: 6°C
Humedad: 52%
Barómetro: 1023.4 hPa
Nubes: Despejado
Visibilidad: 16 km
2022/01/29 01:54 KHWD 290154Z 06004KT 10SM CLR 16/06 A3022 RMK AO2 SLP244 T01560056
KLVK - Livermore, California, USA
Distancia desde EA1HNP Meteo: NNE 51km
Actualización: 29/01/2022 02:53
Despejado
Despejado
 Viento del ENE
Viento: ENE 15 km/h
Temperatura: 11°C
Rocío: 6°C
Humedad: 72%
Barómetro: 1024 hPa
Nubes: Despejado
Visibilidad: 16 km
2022/01/29 01:53 KLVK 290153Z 06008KT 10SM CLR 11/06 A3024 RMK AO2 SLP239 T01060061